createdAt,value
2018-09-02T00:00:38.434Z,18.33
2018-09-02T00:03:07.443Z,17.23
2018-09-02T00:05:36.344Z,20.20
2018-09-02T00:08:05.455Z,16.90
2018-09-02T00:10:34.504Z,17.07
2018-09-02T00:13:03.364Z,16.60
2018-09-02T00:15:32.614Z,15.37
2018-09-02T00:18:01.210Z,16.87
2018-09-02T00:20:30.349Z,14.83
2018-09-02T00:22:59.612Z,19.90
2018-09-02T00:25:28.334Z,17.13
2018-09-02T00:27:56.983Z,16.50
2018-09-02T00:30:25.996Z,18.37
2018-09-02T00:32:54.714Z,16.63
2018-09-02T00:35:23.472Z,16.43
2018-09-02T00:37:52.780Z,16.67
2018-09-02T00:40:21.534Z,16.80
2018-09-02T00:42:50.559Z,18.60
2018-09-02T00:45:19.619Z,19.40
2018-09-02T00:47:48.419Z,14.93
2018-09-02T00:50:17.208Z,15.57
2018-09-02T00:52:46.274Z,15.07
2018-09-02T00:55:14.994Z,19.17
2018-09-02T00:57:43.678Z,14.27
2018-09-02T01:00:12.684Z,15.63
2018-09-02T01:02:41.463Z,15.57
2018-09-02T01:05:10.479Z,16.20
2018-09-02T01:07:39.927Z,14.10
2018-09-02T01:10:09.159Z,16.53
2018-09-02T01:12:37.947Z,17.10
2018-09-02T01:15:07.327Z,14.70
2018-09-02T01:17:36.211Z,17.17
2018-09-02T01:20:05.338Z,17.30
2018-09-02T01:22:34.446Z,16.37
2018-09-02T01:25:03.250Z,18.83
2018-09-02T01:27:31.845Z,16.93
2018-09-02T01:30:00.968Z,19.73
2018-09-02T01:32:30.083Z,17.57
2018-09-02T01:34:58.910Z,22.67
2018-09-02T01:37:28.346Z,16.03
2018-09-02T01:39:57.155Z,16.53
2018-09-02T01:42:26.155Z,17.80
2018-09-02T01:44:55.228Z,17.20
2018-09-02T01:47:24.271Z,19.13
2018-09-02T01:49:53.243Z,19.50
2018-09-02T01:52:22.171Z,19.13
2018-09-02T01:54:50.902Z,15.33
2018-09-02T01:57:19.646Z,18.07
2018-09-02T01:59:48.748Z,18.40
2018-09-02T02:02:17.939Z,20.93
2018-09-02T02:04:46.932Z,16.60
2018-09-02T02:07:16.022Z,18.37
2018-09-02T02:09:44.917Z,15.20
2018-09-02T02:12:13.987Z,15.03
2018-09-02T02:14:43.051Z,16.40
2018-09-02T02:17:11.813Z,17.37
2018-09-02T02:19:40.543Z,18.33
2018-09-02T02:22:09.511Z,16.97
2018-09-02T02:24:44.691Z,13.93
2018-09-02T02:27:13.681Z,17.53
2018-09-02T02:29:42.570Z,19.07
2018-09-02T02:32:11.494Z,15.27
2018-09-02T02:34:40.612Z,18.50
2018-09-02T02:37:09.687Z,14.90
2018-09-02T02:39:38.373Z,15.60
2018-09-02T02:42:07.783Z,18.80
2018-09-02T02:44:36.870Z,16.50
2018-09-02T02:47:05.913Z,17.43
2018-09-02T02:49:35.290Z,19.27
2018-09-02T02:52:04.049Z,15.47
2018-09-02T02:54:32.822Z,20.17
2018-09-02T02:57:01.668Z,16.60
2018-09-02T02:59:30.464Z,15.83
2018-09-02T03:01:59.510Z,20.03
2018-09-02T03:04:28.343Z,15.83
2018-09-02T03:06:57.306Z,15.83
2018-09-02T03:09:26.170Z,17.93
2018-09-02T03:11:55.500Z,15.87
2018-09-02T03:14:24.487Z,20.50
2018-09-02T03:16:53.589Z,19.40
2018-09-02T03:19:22.384Z,17.37
2018-09-02T03:21:51.175Z,16.33
2018-09-02T03:24:20.438Z,18.33
2018-09-02T03:26:49.069Z,17.93
2018-09-02T03:29:18.047Z,17.00
2018-09-02T03:31:46.883Z,20.40
2018-09-02T03:34:15.807Z,18.30
2018-09-02T03:36:44.825Z,17.60
2018-09-02T03:39:14.105Z,18.03
2018-09-02T03:41:43.174Z,16.10
2018-09-02T03:44:11.908Z,17.67
2018-09-02T03:46:41.127Z,16.87
2018-09-02T03:49:09.906Z,21.07
2018-09-02T03:51:38.877Z,20.23
2018-09-02T03:54:07.599Z,19.90
2018-09-02T03:56:36.402Z,16.83
2018-09-02T03:59:05.328Z,21.50
2018-09-02T04:01:34.581Z,17.73
2018-09-02T04:04:03.714Z,15.40
2018-09-02T04:06:32.650Z,22.03
2018-09-02T04:09:01.975Z,16.47
2018-09-02T04:11:31.003Z,16.27
2018-09-02T04:13:59.888Z,17.73
2018-09-02T04:16:28.902Z,19.30
2018-09-02T04:18:58.479Z,21.40
2018-09-02T04:21:27.618Z,18.23
2018-09-02T04:23:56.414Z,19.23
2018-09-02T04:26:25.095Z,22.07
2018-09-02T04:28:54.114Z,19.43
2018-09-02T04:31:23.319Z,18.80
2018-09-02T04:33:52.155Z,20.67
2018-09-02T04:36:21.666Z,19.63
2018-09-02T04:38:50.511Z,19.90
2018-09-02T04:41:19.667Z,27.37
2018-09-02T04:43:49.035Z,36.43
2018-09-02T04:46:18.202Z,26.77
2018-09-02T04:48:47.106Z,17.10
2018-09-02T04:51:15.775Z,17.60
2018-09-02T04:53:44.708Z,21.13
2018-09-02T04:56:13.551Z,18.03
2018-09-02T04:58:42.338Z,24.60
2018-09-02T05:01:11.596Z,24.30
2018-09-02T05:03:40.506Z,27.87
2018-09-02T05:06:09.220Z,43.73
2018-09-02T05:08:38.264Z,23.43
2018-09-02T05:11:07.141Z,20.17
2018-09-02T05:13:35.944Z,25.70
2018-09-02T05:16:05.111Z,24.63
2018-09-02T05:18:33.732Z,26.70
2018-09-02T05:21:03.001Z,37.67
2018-09-02T05:23:32.201Z,32.97
2018-09-02T05:26:00.965Z,24.40
2018-09-02T05:28:29.958Z,21.07
2018-09-02T05:30:59.220Z,24.20
2018-09-02T05:33:28.161Z,26.47
2018-09-02T05:35:57.200Z,22.47
2018-09-02T05:38:26.467Z,25.67
2018-09-02T05:40:55.447Z,24.90
2018-09-02T05:43:24.159Z,19.73
2018-09-02T05:45:53.246Z,22.13
2018-09-02T05:48:22.214Z,24.90
2018-09-02T05:50:50.858Z,21.93
2018-09-02T05:53:19.882Z,22.87
2018-09-02T05:55:48.652Z,25.60
2018-09-02T05:58:17.771Z,25.77
2018-09-02T06:00:47.119Z,26.83
2018-09-02T06:03:16.167Z,19.43
2018-09-02T06:05:45.076Z,20.83
2018-09-02T06:08:13.911Z,21.93
2018-09-02T06:10:42.918Z,22.47
2018-09-02T06:13:14.279Z,27.50
2018-09-02T06:15:43.338Z,32.37
2018-09-02T06:18:12.842Z,26.77
2018-09-02T06:20:41.591Z,32.80
2018-09-02T06:23:10.486Z,38.23
2018-09-02T06:25:39.971Z,53.33
2018-09-02T06:28:08.893Z,50.47
2018-09-02T06:30:37.938Z,30.03
2018-09-02T06:33:07.103Z,33.33
2018-09-02T06:35:35.845Z,26.17
2018-09-02T06:38:04.961Z,32.07
2018-09-02T06:40:34.191Z,30.93
2018-09-02T06:43:02.955Z,28.47
2018-09-02T06:45:32.001Z,21.23
2018-09-02T06:48:01.151Z,21.83
2018-09-02T06:50:30.034Z,26.10
2018-09-02T06:52:58.764Z,22.90
2018-09-02T06:55:27.954Z,19.40
2018-09-02T06:57:57.037Z,21.27
2018-09-02T07:00:25.994Z,22.87
2018-09-02T07:02:55.053Z,21.80
2018-09-02T07:05:23.754Z,23.37
2018-09-02T07:07:52.696Z,19.40
2018-09-02T07:10:21.820Z,17.67
2018-09-02T07:12:50.929Z,23.00
2018-09-02T07:15:19.841Z,18.93
2018-09-02T07:17:49.077Z,18.07
2018-09-02T07:20:17.838Z,18.50
2018-09-02T07:22:46.563Z,19.90
2018-09-02T07:25:15.713Z,25.17
2018-09-02T07:27:44.854Z,20.13
2018-09-02T07:30:13.798Z,29.73
2018-09-02T07:32:42.851Z,19.93
2018-09-02T07:35:12.246Z,22.33
2018-09-02T07:37:41.035Z,21.60
2018-09-02T07:40:10.206Z,25.17
2018-09-02T07:42:39.202Z,24.82
2018-09-02T07:45:09.620Z,18.23
2018-09-02T07:47:38.304Z,23.67
2018-09-02T07:50:07.284Z,18.15
2018-09-02T07:52:36.032Z,25.77
2018-09-02T07:55:05.425Z,22.17
2018-09-02T07:57:34.843Z,20.62
2018-09-02T08:00:03.755Z,30.17
2018-09-02T08:02:32.786Z,19.25
2018-09-02T08:05:02.010Z,20.27
2018-09-02T08:07:31.332Z,21.73
2018-09-02T08:10:00.425Z,22.17
2018-09-02T08:12:29.722Z,24.37
2018-09-02T08:14:58.623Z,18.80
2018-09-02T08:17:27.431Z,17.80
2018-09-02T08:19:56.200Z,18.27
2018-09-02T08:22:24.974Z,21.62
2018-09-02T08:24:54.344Z,22.00
2018-09-02T08:27:23.166Z,19.48
2018-09-02T08:29:52.026Z,15.63
2018-09-02T08:32:21.580Z,16.10
2018-09-02T08:34:50.847Z,17.87
2018-09-02T08:37:19.679Z,18.00
2018-09-02T08:39:49.079Z,15.58
2018-09-02T08:42:17.813Z,15.15
2018-09-02T08:44:46.760Z,19.95
2018-09-02T08:47:16.186Z,19.00
2018-09-02T08:49:44.754Z,14.50
2018-09-02T08:52:13.780Z,16.00
2018-09-02T08:54:42.706Z,17.30
2018-09-02T08:57:11.712Z,14.10
2018-09-02T08:59:40.398Z,21.60
2018-09-02T09:02:09.493Z,15.45
2018-09-02T09:04:38.186Z,14.93
2018-09-02T09:07:07.118Z,17.60
2018-09-02T09:09:36.500Z,15.10
2018-09-02T09:12:05.910Z,20.25
2018-09-02T09:14:34.913Z,15.30
2018-09-02T09:17:03.825Z,12.35
2018-09-02T09:19:32.407Z,19.20
2018-09-02T09:22:01.208Z,14.47
2018-09-02T09:24:30.067Z,17.45
2018-09-02T09:26:58.816Z,14.58
2018-09-02T09:29:27.854Z,12.18
2018-09-02T09:31:57.158Z,13.03
2018-09-02T09:34:26.635Z,17.12
2018-09-02T09:36:55.602Z,19.92
2018-09-02T09:39:24.405Z,10.72
2018-09-02T09:41:53.618Z,11.83
2018-09-02T09:44:22.547Z,11.57
2018-09-02T09:46:51.694Z,14.20
2018-09-02T09:49:20.835Z,14.03
2018-09-02T09:51:49.876Z,15.15
2018-09-02T09:54:18.681Z,18.62
2018-09-02T09:56:47.976Z,15.10
2018-09-02T09:59:17.282Z,16.50
2018-09-02T10:01:46.278Z,10.70
2018-09-02T10:04:15.595Z,21.73
2018-09-02T10:06:44.366Z,15.38
2018-09-02T10:09:15.007Z,12.28
2018-09-02T10:11:44.787Z,9.20
2018-09-02T10:14:13.666Z,8.78
2018-09-02T10:16:42.410Z,15.70
2018-09-02T10:19:11.414Z,13.15
2018-09-02T10:21:40.174Z,17.50
2018-09-02T10:24:09.182Z,16.37
2018-09-02T10:26:38.469Z,9.33
2018-09-02T10:29:07.473Z,7.10
2018-09-02T10:31:36.498Z,17.98
2018-09-02T10:34:05.925Z,13.90
2018-09-02T10:36:35.196Z,10.18
2018-09-02T10:39:05.067Z,14.05
2018-09-02T10:41:34.399Z,13.93
2018-09-02T10:44:03.249Z,10.23
2018-09-02T10:46:32.066Z,13.90
2018-09-02T10:49:00.784Z,16.57
2018-09-02T10:51:29.774Z,12.45
2018-09-02T10:53:58.847Z,10.65
2018-09-02T10:56:27.784Z,10.18
2018-09-02T10:58:56.927Z,8.45
2018-09-02T11:01:25.793Z,16.60
2018-09-02T11:03:54.703Z,15.30
2018-09-02T11:06:23.393Z,12.88
2018-09-02T11:08:52.608Z,9.88
2018-09-02T11:11:22.005Z,22.25
2018-09-02T11:13:51.465Z,10.05
2018-09-02T11:16:20.437Z,9.83
2018-09-02T11:18:49.177Z,8.08
2018-09-02T11:21:17.929Z,10.93
2018-09-02T11:23:50.171Z,13.03
2018-09-02T11:26:19.457Z,18.10
2018-09-02T11:28:48.383Z,10.15
2018-09-02T11:31:17.697Z,9.20
2018-09-02T11:33:46.573Z,10.13
2018-09-02T11:36:15.780Z,9.13
2018-09-02T11:38:45.460Z,7.58
2018-09-02T11:41:14.640Z,14.90
2018-09-02T11:43:43.690Z,12.88
2018-09-02T11:46:12.743Z,15.70
2018-09-02T11:48:41.472Z,13.13
2018-09-02T11:51:10.414Z,6.42
2018-09-02T11:53:39.635Z,11.30
2018-09-02T11:56:08.709Z,10.05
2018-09-02T11:58:37.567Z,9.30
2018-09-02T12:01:06.813Z,9.78
2018-09-02T12:03:35.939Z,20.92
2018-09-02T12:06:05.035Z,10.95
2018-09-02T12:08:34.137Z,12.93
2018-09-02T12:11:03.091Z,7.67
2018-09-02T12:13:31.870Z,9.18
2018-09-02T12:16:00.898Z,8.35
2018-09-02T12:18:29.931Z,8.60
2018-09-02T12:20:59.093Z,11.40
2018-09-02T12:23:28.477Z,10.13
2018-09-02T12:25:57.478Z,8.75
2018-09-02T12:28:26.761Z,12.93
2018-09-02T12:30:55.983Z,10.72
2018-09-02T12:33:24.714Z,10.80
2018-09-02T12:35:53.895Z,12.93
2018-09-02T12:38:23.162Z,6.12
2018-09-02T12:40:52.086Z,7.05
2018-09-02T12:43:20.963Z,6.15
2018-09-02T12:45:50.269Z,9.60
2018-09-02T12:48:19.553Z,9.60
2018-09-02T12:50:48.313Z,11.05
2018-09-02T12:53:17.235Z,16.12
2018-09-02T12:55:46.205Z,9.93
2018-09-02T12:58:15.422Z,11.63
2018-09-02T13:00:44.611Z,10.70
2018-09-02T13:03:13.397Z,10.63
2018-09-02T13:05:42.295Z,11.00
2018-09-02T13:08:11.320Z,7.75
2018-09-02T13:10:40.262Z,11.65
2018-09-02T13:13:09.003Z,8.50
2018-09-02T13:15:38.284Z,9.03
2018-09-02T13:18:07.014Z,10.20
2018-09-02T13:20:36.031Z,11.48
2018-09-02T13:23:05.358Z,10.55
2018-09-02T13:25:34.314Z,17.30
2018-09-02T13:28:03.124Z,10.53
2018-09-02T13:30:32.352Z,9.25
2018-09-02T13:33:01.153Z,9.18
2018-09-02T13:35:30.098Z,12.55
2018-09-02T13:40:39.876Z,6.97
2018-09-02T13:43:08.680Z,11.33
2018-09-02T13:45:37.384Z,10.65
2018-09-02T13:48:06.390Z,10.88
2018-09-02T13:50:35.847Z,9.58
2018-09-02T13:53:04.848Z,16.23
2018-09-02T13:55:33.619Z,9.58
2018-09-02T13:58:02.663Z,11.88
2018-09-02T14:00:31.363Z,10.23
2018-09-02T14:03:00.423Z,7.75
2018-09-02T14:05:29.135Z,8.08
2018-09-02T14:07:58.338Z,11.57
2018-09-02T14:10:27.030Z,12.13
2018-09-02T14:12:55.966Z,8.50
2018-09-02T14:15:24.758Z,12.70
2018-09-02T14:17:53.814Z,14.55
2018-09-02T14:20:23.289Z,20.62
2018-09-02T14:22:52.523Z,9.10
2018-09-02T14:25:21.441Z,15.32
2018-09-02T14:27:50.998Z,11.68
2018-09-02T14:30:20.084Z,10.95
2018-09-02T14:32:49.147Z,8.98
2018-09-02T14:35:18.386Z,9.73
2018-09-02T14:37:47.204Z,14.45
2018-09-02T14:40:15.916Z,8.33
2018-09-02T14:42:45.141Z,12.28
2018-09-02T14:45:13.946Z,14.53
2018-09-02T14:47:42.922Z,11.57
2018-09-02T14:50:12.223Z,13.30
2018-09-02T14:52:41.299Z,19.90
2018-09-02T14:55:10.594Z,14.13
2018-09-02T14:57:40.031Z,12.63
2018-09-02T15:00:08.878Z,17.25
2018-09-02T15:02:37.743Z,16.57
2018-09-02T15:05:06.815Z,10.23
2018-09-02T15:07:35.522Z,11.25
2018-09-02T15:10:04.360Z,16.97
2018-09-02T15:12:33.492Z,13.30
2018-09-02T15:15:02.471Z,13.30
2018-09-02T15:17:31.440Z,12.82
2018-09-02T15:20:00.799Z,13.43
2018-09-02T15:22:29.750Z,9.55
2018-09-02T15:24:58.592Z,9.38
2018-09-02T15:27:27.977Z,11.83
2018-09-02T15:29:56.953Z,18.45
2018-09-02T15:32:25.726Z,16.27
2018-09-02T15:34:54.659Z,9.28
2018-09-02T15:37:23.626Z,13.70
2018-09-02T15:39:52.323Z,10.08
2018-09-02T15:42:21.530Z,15.48
2018-09-02T15:44:50.362Z,13.45
2018-09-02T15:47:19.296Z,13.60
2018-09-02T15:49:48.503Z,8.73
2018-09-02T15:52:17.198Z,10.18
2018-09-02T15:54:45.852Z,14.13
2018-09-02T15:57:15.121Z,10.30
2018-09-02T15:59:43.846Z,10.08
2018-09-02T16:02:12.938Z,13.13
2018-09-02T16:04:42.470Z,18.77
2018-09-02T16:07:11.513Z,13.22
2018-09-02T16:09:40.267Z,15.93
2018-09-02T16:12:09.483Z,11.43
2018-09-02T16:14:38.500Z,15.03
2018-09-02T16:17:07.451Z,20.35
2018-09-02T16:19:36.462Z,16.80
2018-09-02T16:22:05.562Z,14.35
2018-09-02T16:24:34.733Z,17.87
2018-09-02T16:27:03.821Z,17.77
2018-09-02T16:29:32.839Z,20.57
2018-09-02T16:32:01.678Z,18.82
2018-09-02T16:34:30.791Z,24.15
2018-09-02T16:36:59.687Z,16.23
2018-09-02T16:39:28.334Z,17.73
2018-09-02T16:41:57.143Z,11.00
2018-09-02T16:44:26.302Z,14.85
2018-09-02T16:46:55.286Z,17.37
2018-09-02T16:49:24.352Z,20.85
2018-09-02T16:51:53.227Z,16.55
2018-09-02T16:54:22.063Z,17.37
2018-09-02T16:56:51.243Z,11.40
2018-09-02T16:59:20.247Z,14.07
2018-09-02T17:01:49.054Z,20.23
2018-09-02T17:04:18.755Z,19.48
2018-09-02T17:06:47.709Z,13.75
2018-09-02T17:09:16.531Z,17.20
2018-09-02T17:11:45.361Z,17.05
2018-09-02T17:14:13.927Z,19.60
2018-09-02T17:16:43.263Z,22.13
2018-09-02T17:19:16.735Z,28.27
2018-09-02T17:21:45.732Z,17.50
2018-09-02T17:24:14.779Z,26.10
2018-09-02T17:26:43.590Z,18.82
2018-09-02T17:29:12.652Z,19.52
2018-09-02T17:31:41.395Z,16.67
2018-09-02T17:34:10.671Z,11.05
2018-09-02T17:36:39.495Z,13.55
2018-09-02T17:39:10.178Z,12.28
2018-09-02T17:41:38.964Z,18.02
2018-09-02T17:44:07.967Z,20.57
2018-09-02T17:46:37.121Z,13.15
2018-09-02T17:49:06.327Z,20.12
2018-09-02T17:51:35.475Z,22.42
2018-09-02T17:54:04.365Z,16.48
2018-09-02T17:56:33.580Z,11.93
2018-09-02T17:59:02.367Z,18.92
2018-09-02T18:01:31.566Z,16.93
2018-09-02T18:04:00.294Z,22.55
2018-09-02T18:06:28.954Z,24.55
2018-09-02T18:08:57.622Z,24.18
2018-09-02T18:11:26.210Z,27.05
2018-09-02T18:13:55.196Z,21.05
2018-09-02T18:16:24.342Z,20.05
2018-09-02T18:18:53.268Z,32.00
2018-09-02T18:21:21.978Z,27.17
2018-09-02T18:23:50.864Z,19.27
2018-09-02T18:26:20.005Z,16.23
2018-09-02T18:28:49.671Z,20.48
2018-09-02T18:31:18.735Z,22.05
2018-09-02T18:33:47.532Z,22.37
2018-09-02T18:36:16.391Z,27.27
2018-09-02T18:38:45.099Z,27.10
2018-09-02T18:41:13.899Z,23.25
2018-09-02T18:43:42.844Z,21.60
2018-09-02T18:46:12.394Z,21.73
2018-09-02T18:48:41.303Z,19.40
2018-09-02T18:51:09.941Z,22.75
2018-09-02T18:53:38.620Z,20.20
2018-09-02T18:56:07.464Z,19.70
2018-09-02T18:58:36.698Z,16.40
2018-09-02T19:01:05.723Z,14.60
2018-09-02T19:03:34.733Z,22.77
2018-09-02T19:06:03.602Z,13.53
2018-09-02T19:08:32.543Z,17.77
2018-09-02T19:11:01.420Z,18.32
2018-09-02T19:13:30.109Z,19.55
2018-09-02T19:15:58.937Z,21.62
2018-09-02T19:18:27.870Z,14.80
2018-09-02T19:20:56.681Z,15.87
2018-09-02T19:23:25.595Z,22.35
2018-09-02T19:25:54.714Z,16.10
2018-09-02T19:28:23.445Z,20.55
2018-09-02T19:30:52.220Z,29.63
2018-09-02T19:33:21.055Z,17.30
2018-09-02T19:35:49.727Z,17.75
2018-09-02T19:38:18.327Z,17.02
2018-09-02T19:40:47.348Z,18.75
2018-09-02T19:43:16.372Z,16.97
2018-09-02T19:45:45.130Z,22.27
2018-09-02T19:48:14.231Z,16.82
2018-09-02T19:50:43.383Z,16.23
2018-09-02T19:53:12.711Z,12.05
2018-09-02T19:55:41.680Z,14.98
2018-09-02T19:58:10.598Z,18.73
2018-09-02T20:00:39.541Z,19.70
2018-09-02T20:03:08.425Z,15.67
2018-09-02T20:05:37.082Z,13.57
2018-09-02T20:08:05.848Z,18.75
2018-09-02T20:10:35.070Z,19.80
2018-09-02T20:13:03.998Z,16.97
2018-09-02T20:15:33.241Z,16.77
2018-09-02T20:18:02.402Z,14.53
2018-09-02T20:20:31.320Z,13.28
2018-09-02T20:23:00.436Z,19.55
2018-09-02T20:25:29.447Z,14.90
2018-09-02T20:27:58.322Z,26.37
2018-09-02T20:30:27.247Z,14.07
2018-09-02T20:32:56.131Z,18.20
2018-09-02T20:35:24.795Z,15.23
2018-09-02T20:37:53.386Z,15.98
2018-09-02T20:40:22.538Z,11.60
2018-09-02T20:42:51.552Z,17.07
2018-09-02T20:45:20.520Z,17.43
2018-09-02T20:47:49.636Z,13.37
2018-09-02T20:50:18.640Z,19.73
2018-09-02T20:52:47.491Z,14.40
2018-09-02T20:55:16.322Z,17.07
2018-09-02T20:57:45.266Z,15.35
2018-09-02T21:00:14.430Z,15.40
2018-09-02T21:02:43.103Z,18.57
2018-09-02T21:05:11.923Z,20.73
2018-09-02T21:07:40.581Z,12.60
2018-09-02T21:10:09.344Z,14.00
2018-09-02T21:12:39.273Z,19.63
2018-09-02T21:15:08.035Z,11.10
2018-09-02T21:17:36.979Z,13.30
2018-09-02T21:20:06.108Z,11.53
2018-09-02T21:22:35.027Z,14.23
2018-09-02T21:25:04.273Z,14.67
2018-09-02T21:27:33.335Z,14.90
2018-09-02T21:30:02.458Z,19.63
2018-09-02T21:32:31.187Z,16.23
2018-09-02T21:34:59.943Z,15.93
2018-09-02T21:37:28.671Z,18.93
2018-09-02T21:39:57.411Z,15.88
2018-09-02T21:42:26.514Z,14.40
2018-09-02T21:44:55.719Z,11.07
2018-09-02T21:47:24.340Z,14.90
2018-09-02T21:49:53.422Z,17.67
2018-09-02T21:52:22.240Z,15.60
2018-09-02T21:54:51.071Z,29.13
2018-09-02T21:57:19.921Z,13.60
2018-09-02T21:59:49.012Z,14.47
2018-09-02T22:02:17.685Z,13.00
2018-09-02T22:04:46.438Z,14.37
2018-09-02T22:07:15.148Z,14.13
2018-09-02T22:09:43.963Z,15.50
2018-09-02T22:12:12.800Z,14.00
2018-09-02T22:14:41.643Z,17.13
2018-09-02T22:17:10.591Z,13.10
2018-09-02T22:19:39.340Z,12.07
2018-09-02T22:22:08.146Z,12.93
2018-09-02T22:24:36.915Z,18.03
2018-09-02T22:27:05.735Z,16.70
2018-09-02T22:29:34.677Z,15.70
2018-09-02T22:32:03.569Z,13.23
2018-09-02T22:34:32.342Z,18.87
2018-09-02T22:37:01.072Z,14.90
2018-09-02T22:39:30.003Z,14.23
2018-09-02T22:41:59.188Z,14.03
2018-09-02T22:44:27.854Z,16.77
2018-09-02T22:46:56.893Z,13.10
2018-09-02T22:49:25.879Z,17.60
2018-09-02T22:51:54.870Z,15.70
2018-09-02T22:54:23.970Z,14.17
2018-09-02T22:56:53.054Z,17.43
2018-09-02T22:59:22.217Z,13.77
2018-09-02T23:01:50.941Z,17.20
2018-09-02T23:04:19.668Z,29.70
2018-09-02T23:06:48.560Z,18.77
2018-09-02T23:09:17.375Z,15.97
2018-09-02T23:11:46.271Z,12.77
2018-09-02T23:14:15.237Z,13.63
2018-09-02T23:16:44.124Z,17.30
2018-09-02T23:19:12.988Z,14.67
2018-09-02T23:21:41.875Z,12.90
2018-09-02T23:24:10.742Z,15.00
2018-09-02T23:26:39.516Z,17.23
2018-09-02T23:29:08.493Z,16.93
2018-09-02T23:31:37.310Z,15.60
2018-09-02T23:34:06.295Z,18.67
2018-09-02T23:36:35.265Z,14.53
2018-09-02T23:39:05.352Z,19.87
2018-09-02T23:41:34.393Z,19.17
2018-09-02T23:44:03.615Z,19.83
2018-09-02T23:46:32.419Z,17.37
2018-09-02T23:49:01.422Z,18.43
2018-09-02T23:51:30.278Z,17.70
2018-09-02T23:53:59.212Z,19.23
2018-09-02T23:56:28.182Z,13.97
2018-09-02T23:58:57.295Z,13.17
